createdAt,value
2018-09-21T00:00:44.111Z,999.53
2018-09-21T00:02:37.214Z,999.54
2018-09-21T00:03:37.192Z,999.43
2018-09-21T00:05:30.277Z,999.43
2018-09-21T00:06:30.262Z,999.40
2018-09-21T00:08:23.363Z,999.39
2018-09-21T00:09:23.339Z,999.39
2018-09-21T00:11:16.434Z,999.41
2018-09-21T00:12:16.416Z,999.38
2018-09-21T00:14:09.520Z,999.40
2018-09-21T00:15:09.509Z,999.39
2018-09-21T00:17:02.596Z,999.35
2018-09-21T00:18:02.577Z,999.41
2018-09-21T00:19:55.684Z,999.34
2018-09-21T00:20:55.658Z,999.35
2018-09-21T00:22:48.753Z,999.32
2018-09-21T00:23:48.742Z,999.26
2018-09-21T00:25:41.838Z,999.32
2018-09-21T00:26:41.817Z,999.32
2018-09-21T00:28:34.910Z,999.26
2018-09-21T00:29:34.895Z,999.28
2018-09-21T00:31:27.997Z,999.28
2018-09-21T00:32:27.970Z,999.31
2018-09-21T00:34:21.071Z,999.29
2018-09-21T00:35:21.055Z,999.28
2018-09-21T00:37:14.152Z,999.29
2018-09-21T00:38:14.126Z,999.28
2018-09-21T00:40:07.223Z,999.28
2018-09-21T00:41:07.204Z,999.21
2018-09-21T00:43:00.306Z,999.23
2018-09-21T00:44:00.281Z,999.22
2018-09-21T00:45:53.371Z,999.20
2018-09-21T00:46:53.357Z,999.24
2018-09-21T00:48:46.469Z,999.23
2018-09-21T00:49:46.454Z,999.22
2018-09-21T00:51:39.536Z,999.28
2018-09-21T00:52:39.519Z,999.28
2018-09-21T00:54:32.627Z,999.30
2018-09-21T00:55:32.606Z,999.33
2018-09-21T00:57:25.701Z,999.35
2018-09-21T00:58:25.680Z,999.34
2018-09-21T01:00:18.778Z,999.33
2018-09-21T01:01:18.754Z,999.35
2018-09-21T01:03:11.855Z,999.37
2018-09-21T01:04:11.832Z,999.33
2018-09-21T01:06:04.932Z,999.34
2018-09-21T01:07:04.908Z,999.33
2018-09-21T01:08:58.009Z,999.28
2018-09-21T01:09:57.991Z,999.30
2018-09-21T01:11:51.096Z,999.30
2018-09-21T01:12:51.071Z,999.30
2018-09-21T01:14:44.171Z,999.27
2018-09-21T01:15:44.150Z,999.26
2018-09-21T01:17:37.262Z,999.20
2018-09-21T01:18:37.228Z,999.19
2018-09-21T01:20:30.333Z,999.19
2018-09-21T01:21:30.304Z,999.18
2018-09-21T01:23:23.396Z,999.14
2018-09-21T01:24:23.376Z,999.15
2018-09-21T01:26:16.506Z,999.13
2018-09-21T01:27:16.451Z,999.11
2018-09-21T01:29:09.547Z,999.09
2018-09-21T01:30:09.535Z,999.08
2018-09-21T01:32:02.635Z,999.03
2018-09-21T01:33:02.615Z,999.04
2018-09-21T01:34:55.705Z,998.99
2018-09-21T01:35:55.689Z,998.99
2018-09-21T01:37:48.811Z,998.99
2018-09-21T01:38:48.768Z,998.99
2018-09-21T01:40:41.863Z,998.97
2018-09-21T01:41:41.846Z,998.99
2018-09-21T01:43:34.952Z,998.96
2018-09-21T01:44:34.926Z,998.94
2018-09-21T01:46:28.028Z,998.95
2018-09-21T01:47:28.009Z,998.97
2018-09-21T01:49:21.124Z,998.92
2018-09-21T01:50:21.121Z,998.89
2018-09-21T01:52:14.189Z,998.83
2018-09-21T01:53:14.169Z,998.81
2018-09-21T01:55:07.271Z,998.79
2018-09-21T01:56:07.243Z,998.76
2018-09-21T01:58:00.335Z,998.71
2018-09-21T01:59:00.318Z,998.73
2018-09-21T02:00:53.428Z,998.69
2018-09-21T02:01:53.400Z,998.69
2018-09-21T02:03:46.497Z,998.66
2018-09-21T02:04:46.481Z,998.66
2018-09-21T02:06:39.584Z,998.63
2018-09-21T02:07:39.564Z,998.59
2018-09-21T02:09:32.689Z,998.63
2018-09-21T02:10:32.645Z,998.57
2018-09-21T02:12:25.750Z,998.55
2018-09-21T02:13:25.775Z,998.56
2018-09-21T02:15:18.821Z,998.52
2018-09-21T02:16:18.802Z,998.56
2018-09-21T02:18:11.905Z,998.56
2018-09-21T02:19:11.882Z,998.52
2018-09-21T02:21:04.975Z,998.52
2018-09-21T02:22:04.954Z,998.52
2018-09-21T02:23:58.071Z,998.50
2018-09-21T02:24:58.035Z,998.52
2018-09-21T02:26:51.130Z,998.48
2018-09-21T02:27:51.111Z,998.55
2018-09-21T02:29:44.213Z,998.49
2018-09-21T02:30:44.185Z,998.45
2018-09-21T02:32:37.285Z,998.45
2018-09-21T02:33:37.268Z,998.42
2018-09-21T02:35:30.375Z,998.41
2018-09-21T02:36:30.346Z,998.36
2018-09-21T02:38:23.440Z,998.31
2018-09-21T02:39:23.422Z,998.34
2018-09-21T02:41:16.536Z,998.30
2018-09-21T02:42:16.506Z,998.29
2018-09-21T02:44:09.599Z,998.35
2018-09-21T02:45:09.578Z,998.33
2018-09-21T02:47:02.681Z,998.28
2018-09-21T02:48:02.660Z,998.25
2018-09-21T02:49:55.759Z,998.29
2018-09-21T02:50:55.739Z,998.26
2018-09-21T02:52:48.840Z,998.29
2018-09-21T02:53:48.810Z,998.26
2018-09-21T02:55:41.902Z,998.25
2018-09-21T02:56:41.888Z,998.23
2018-09-21T02:58:35.002Z,998.18
2018-09-21T02:59:34.978Z,998.18
2018-09-21T03:01:28.066Z,998.12
2018-09-21T03:02:28.063Z,998.12
2018-09-21T03:04:21.163Z,998.09
2018-09-21T03:05:21.128Z,998.10
2018-09-21T03:07:14.227Z,998.09
2018-09-21T03:08:14.200Z,998.06
2018-09-21T03:10:07.317Z,998.00
2018-09-21T03:11:07.286Z,998.06
2018-09-21T03:13:00.385Z,998.02
2018-09-21T03:14:00.363Z,998.01
2018-09-21T03:15:53.469Z,997.99
2018-09-21T03:16:53.437Z,998.00
2018-09-21T03:18:46.530Z,997.99
2018-09-21T03:19:46.512Z,997.98
2018-09-21T03:21:39.613Z,997.98
2018-09-21T03:22:39.621Z,997.98
2018-09-21T03:24:32.680Z,997.96
2018-09-21T03:25:32.659Z,997.97
2018-09-21T03:27:25.769Z,997.96
2018-09-21T03:28:25.738Z,997.91
2018-09-21T03:30:18.843Z,997.89
2018-09-21T03:31:18.821Z,997.90
2018-09-21T03:33:11.924Z,997.86
2018-09-21T03:34:11.894Z,997.89
2018-09-21T03:36:04.994Z,997.86
2018-09-21T03:37:04.975Z,997.90
2018-09-21T03:38:58.091Z,997.87
2018-09-21T03:39:58.060Z,997.86
2018-09-21T03:41:51.166Z,997.79
2018-09-21T03:42:51.154Z,997.81
2018-09-21T03:44:44.240Z,997.80
2018-09-21T03:45:44.217Z,997.72
2018-09-21T03:47:37.315Z,997.73
2018-09-21T03:48:37.301Z,997.71
2018-09-21T03:50:30.400Z,997.70
2018-09-21T03:51:30.368Z,997.69
2018-09-21T03:53:23.465Z,997.62
2018-09-21T03:54:23.446Z,997.69
2018-09-21T03:56:16.569Z,997.68
2018-09-21T03:57:16.534Z,997.66
2018-09-21T03:59:09.650Z,997.61
2018-09-21T04:00:09.618Z,997.66
2018-09-21T04:02:02.714Z,997.60
2018-09-21T04:03:02.686Z,997.63
2018-09-21T04:04:55.780Z,997.57
2018-09-21T04:05:55.765Z,997.55
2018-09-21T04:07:48.862Z,997.56
2018-09-21T04:08:48.835Z,997.53
2018-09-21T04:10:41.932Z,997.55
2018-09-21T04:11:41.916Z,997.58
2018-09-21T04:13:35.013Z,997.57
2018-09-21T04:14:34.986Z,997.59
2018-09-21T04:16:28.089Z,997.57
2018-09-21T04:17:28.070Z,997.57
2018-09-21T04:19:21.164Z,997.57
2018-09-21T04:20:21.143Z,997.58
2018-09-21T04:22:14.237Z,997.53
2018-09-21T04:23:14.329Z,997.54
2018-09-21T04:25:07.329Z,997.53
2018-09-21T04:26:07.306Z,997.49
2018-09-21T04:28:00.395Z,997.56
2018-09-21T04:29:00.377Z,997.51
2018-09-21T04:30:53.484Z,997.44
2018-09-21T04:31:53.453Z,997.48
2018-09-21T04:33:46.546Z,997.44
2018-09-21T04:34:46.529Z,997.40
2018-09-21T04:36:39.633Z,997.34
2018-09-21T04:37:39.603Z,997.34
2018-09-21T04:39:32.710Z,997.32
2018-09-21T04:40:32.692Z,997.31
2018-09-21T04:42:25.799Z,997.28
2018-09-21T04:43:25.768Z,997.23
2018-09-21T04:45:18.895Z,997.19
2018-09-21T04:46:18.846Z,997.20
2018-09-21T04:48:11.948Z,997.18
2018-09-21T04:49:11.919Z,997.17
2018-09-21T04:51:05.015Z,997.17
2018-09-21T04:52:04.994Z,997.16
2018-09-21T04:53:58.109Z,997.09
2018-09-21T04:54:58.070Z,997.09
2018-09-21T04:56:51.163Z,997.08
2018-09-21T04:57:51.143Z,997.08
2018-09-21T04:59:44.242Z,997.05
2018-09-21T05:00:44.219Z,997.04
2018-09-21T05:02:37.309Z,997.06
2018-09-21T05:03:37.290Z,997.03
2018-09-21T05:05:30.399Z,997.02
2018-09-21T05:06:30.369Z,996.99
2018-09-21T05:08:23.458Z,996.98
2018-09-21T05:09:23.437Z,996.96
2018-09-21T05:11:16.556Z,996.88
2018-09-21T05:12:16.514Z,996.89
2018-09-21T05:14:09.605Z,996.90
2018-09-21T05:15:09.588Z,996.90
2018-09-21T05:17:02.690Z,996.94
2018-09-21T05:18:02.660Z,997.01
2018-09-21T05:19:55.841Z,997.01
2018-09-21T05:20:55.738Z,997.08
2018-09-21T05:22:48.845Z,997.08
2018-09-21T05:23:48.816Z,997.11
2018-09-21T05:25:41.921Z,997.16
2018-09-21T05:26:41.900Z,997.20
2018-09-21T05:28:35.007Z,997.19
2018-09-21T05:29:34.977Z,997.17
2018-09-21T05:31:28.076Z,997.23
2018-09-21T05:32:28.058Z,997.24
2018-09-21T05:34:21.226Z,997.25
2018-09-21T05:35:21.140Z,997.28
2018-09-21T05:37:14.230Z,997.28
2018-09-21T05:38:14.211Z,997.31
2018-09-21T05:40:07.316Z,997.27
2018-09-21T05:41:07.291Z,997.22
2018-09-21T05:43:00.396Z,997.24
2018-09-21T05:44:00.374Z,997.23
2018-09-21T05:45:53.479Z,997.21
2018-09-21T05:46:53.453Z,997.20
2018-09-21T05:48:46.545Z,997.25
2018-09-21T05:49:46.533Z,997.22
2018-09-21T05:51:39.641Z,997.20
2018-09-21T05:52:39.613Z,997.22
2018-09-21T05:54:32.710Z,997.24
2018-09-21T05:55:32.693Z,997.22
2018-09-21T05:57:25.816Z,997.23
2018-09-21T05:58:25.787Z,997.22
2018-09-21T06:00:18.882Z,997.08
2018-09-21T06:01:18.868Z,997.12
2018-09-21T06:03:11.987Z,997.08
2018-09-21T06:04:11.955Z,997.03
2018-09-21T06:06:05.052Z,997.03
2018-09-21T06:07:05.036Z,997.03
2018-09-21T06:08:58.147Z,997.08
2018-09-21T06:09:58.120Z,997.02
2018-09-21T06:11:51.224Z,996.99
2018-09-21T06:12:51.208Z,997.00
2018-09-21T06:14:44.323Z,997.03
2018-09-21T06:15:44.295Z,997.08
2018-09-21T06:17:37.409Z,997.06
2018-09-21T06:18:37.393Z,997.11
2018-09-21T06:20:30.512Z,997.09
2018-09-21T06:21:30.505Z,997.07
2018-09-21T06:23:23.594Z,997.20
2018-09-21T06:24:23.576Z,997.20
2018-09-21T06:26:16.689Z,997.12
2018-09-21T06:27:16.669Z,997.07
2018-09-21T06:29:09.777Z,997.14
2018-09-21T06:30:09.759Z,997.10
2018-09-21T06:32:02.953Z,997.17
2018-09-21T06:33:02.860Z,997.15
2018-09-21T06:34:55.958Z,997.16
2018-09-21T06:35:55.945Z,997.15
2018-09-21T06:37:50.057Z,997.18
2018-09-21T06:38:50.035Z,997.12
2018-09-21T06:40:43.163Z,997.14
2018-09-21T06:41:43.149Z,997.18
2018-09-21T06:43:36.281Z,997.11
2018-09-21T06:44:36.253Z,997.08
2018-09-21T06:46:29.355Z,997.11
2018-09-21T06:47:29.349Z,997.09
2018-09-21T06:49:22.473Z,997.03
2018-09-21T06:50:22.461Z,996.98
2018-09-21T06:52:15.562Z,997.01
2018-09-21T06:53:15.608Z,997.01
2018-09-21T06:55:08.678Z,997.07
2018-09-21T06:56:08.661Z,997.04
2018-09-21T06:58:01.777Z,997.08
2018-09-21T06:59:01.766Z,997.03
2018-09-21T07:00:54.891Z,996.97
2018-09-21T07:01:54.880Z,996.97
2018-09-21T07:03:47.972Z,996.94
2018-09-21T07:04:47.965Z,996.92
2018-09-21T07:06:41.085Z,996.94
2018-09-21T07:07:41.067Z,996.93
2018-09-21T07:09:34.273Z,996.87
2018-09-21T07:10:34.164Z,996.88
2018-09-21T07:12:27.311Z,996.83
2018-09-21T07:13:27.289Z,996.82
2018-09-21T07:15:20.393Z,996.83
2018-09-21T07:16:20.382Z,996.84
2018-09-21T07:18:13.505Z,996.84
2018-09-21T07:19:13.479Z,996.85
2018-09-21T07:21:06.594Z,996.88
2018-09-21T07:22:06.579Z,996.88
2018-09-21T07:23:59.708Z,996.89
2018-09-21T07:24:59.673Z,996.89
2018-09-21T07:26:52.776Z,996.93
2018-09-21T07:27:52.765Z,996.96
2018-09-21T07:29:45.886Z,996.98
2018-09-21T07:30:45.904Z,997.00
2018-09-21T07:32:38.956Z,997.00
2018-09-21T07:33:38.948Z,997.02
2018-09-21T07:35:32.075Z,997.02
2018-09-21T07:36:32.051Z,997.05
2018-09-21T07:38:25.152Z,997.09
2018-09-21T07:39:25.137Z,997.07
2018-09-21T07:41:18.277Z,997.07
2018-09-21T07:42:18.249Z,997.02
2018-09-21T07:44:11.358Z,996.99
2018-09-21T07:45:11.346Z,997.00
2018-09-21T07:47:04.474Z,996.93
2018-09-21T07:48:04.455Z,996.95
2018-09-21T07:49:57.554Z,996.90
2018-09-21T07:50:57.543Z,996.89
2018-09-21T07:52:50.656Z,996.96
2018-09-21T07:53:50.631Z,996.91
2018-09-21T07:55:43.746Z,996.91
2018-09-21T07:56:43.726Z,996.96
2018-09-21T07:58:36.838Z,996.98
2018-09-21T07:59:36.814Z,996.94
2018-09-21T08:01:29.922Z,996.97
2018-09-21T08:02:29.906Z,996.93
2018-09-21T08:04:23.038Z,996.97
2018-09-21T08:05:22.998Z,996.96
2018-09-21T08:07:16.136Z,997.07
2018-09-21T08:08:16.086Z,997.04
2018-09-21T08:10:09.210Z,997.06
2018-09-21T08:11:09.176Z,997.10
2018-09-21T08:13:02.290Z,997.16
2018-09-21T08:14:02.275Z,997.20
2018-09-21T08:15:55.390Z,997.27
2018-09-21T08:16:55.370Z,997.37
2018-09-21T08:18:48.482Z,997.46
2018-09-21T08:19:48.470Z,997.55
2018-09-21T08:21:41.593Z,997.49
2018-09-21T08:22:41.567Z,997.47
2018-09-21T08:24:34.677Z,997.38
2018-09-21T08:25:34.663Z,997.28
2018-09-21T08:27:27.783Z,997.19
2018-09-21T08:28:27.757Z,997.18
2018-09-21T08:30:20.867Z,997.30
2018-09-21T08:31:20.913Z,997.32
2018-09-21T08:33:14.038Z,997.38
2018-09-21T08:34:13.947Z,997.44
2018-09-21T08:36:07.056Z,997.46
2018-09-21T08:37:07.083Z,997.42
2018-09-21T08:39:00.168Z,997.45
2018-09-21T08:40:00.142Z,997.43
2018-09-21T08:41:53.276Z,997.44
2018-09-21T08:42:53.286Z,997.45
2018-09-21T08:44:46.386Z,997.44
2018-09-21T08:45:46.358Z,997.42
2018-09-21T08:47:39.467Z,997.40
2018-09-21T08:48:39.458Z,997.44
2018-09-21T08:50:32.581Z,997.49
2018-09-21T08:51:32.557Z,997.50
2018-09-21T08:53:25.664Z,997.53
2018-09-21T08:54:25.652Z,997.56
2018-09-21T08:56:18.766Z,997.60
2018-09-21T08:57:18.743Z,997.60
2018-09-21T08:59:11.860Z,997.57
2018-09-21T09:00:11.848Z,997.54
2018-09-21T09:02:04.969Z,997.47
2018-09-21T09:03:05.015Z,997.49
2018-09-21T09:04:58.046Z,997.44
2018-09-21T09:05:58.035Z,997.38
2018-09-21T09:07:51.181Z,997.46
2018-09-21T09:08:51.161Z,997.52
2018-09-21T09:10:44.276Z,997.53
2018-09-21T09:11:44.261Z,997.51
2018-09-21T09:13:37.619Z,997.44
2018-09-21T09:14:37.478Z,997.30
2018-09-21T09:16:30.575Z,997.29
2018-09-21T09:17:30.562Z,997.25
2018-09-21T09:19:23.690Z,997.23
2018-09-21T09:20:23.669Z,997.15
2018-09-21T09:22:16.785Z,997.22
2018-09-21T09:23:16.810Z,997.35
2018-09-21T09:25:09.898Z,997.35
2018-09-21T09:26:09.880Z,997.34
2018-09-21T09:28:02.982Z,997.27
2018-09-21T09:29:03.008Z,997.29
2018-09-21T09:30:56.091Z,997.31
2018-09-21T09:31:56.071Z,997.17
2018-09-21T09:33:49.180Z,997.17
2018-09-21T09:34:49.166Z,997.19
2018-09-21T09:36:42.345Z,997.29
2018-09-21T09:37:42.267Z,997.31
2018-09-21T09:39:35.379Z,997.31
2018-09-21T09:40:35.372Z,997.27
2018-09-21T09:42:28.510Z,997.29
2018-09-21T09:43:28.510Z,997.30
2018-09-21T09:45:21.590Z,997.28
2018-09-21T09:46:21.577Z,997.28
2018-09-21T09:48:14.698Z,997.16
2018-09-21T09:49:14.696Z,997.12
2018-09-21T09:51:07.791Z,997.12
2018-09-21T09:52:07.782Z,997.06
2018-09-21T09:54:00.904Z,997.17
2018-09-21T09:55:00.884Z,997.18
2018-09-21T09:56:54.002Z,997.25
2018-09-21T09:57:53.996Z,997.20
2018-09-21T09:59:47.163Z,997.24
2018-09-21T10:00:47.094Z,997.20
2018-09-21T10:02:40.205Z,997.21
2018-09-21T10:03:40.290Z,997.16
2018-09-21T10:05:33.313Z,997.01
2018-09-21T10:06:33.298Z,997.05
2018-09-21T10:08:26.406Z,997.04
2018-09-21T10:09:26.401Z,997.02
2018-09-21T10:11:19.530Z,997.04
2018-09-21T10:12:19.507Z,997.04
2018-09-21T10:14:12.618Z,997.11
2018-09-21T10:15:12.607Z,997.16
2018-09-21T10:17:05.732Z,997.06
2018-09-21T10:18:05.704Z,997.11
2018-09-21T10:19:58.824Z,997.13
2018-09-21T10:20:58.802Z,997.22
2018-09-21T10:22:51.941Z,997.07
2018-09-21T10:23:51.942Z,997.14
2018-09-21T10:25:45.035Z,997.27
2018-09-21T10:26:45.047Z,997.22
2018-09-21T10:28:38.329Z,997.32
2018-09-21T10:29:38.128Z,997.33
2018-09-21T10:31:31.256Z,997.22
2018-09-21T10:32:31.248Z,997.26
2018-09-21T10:34:24.376Z,997.11
2018-09-21T10:35:24.395Z,997.10
2018-09-21T10:37:17.465Z,997.14
2018-09-21T10:38:17.455Z,997.19
2018-09-21T10:40:10.676Z,997.21
2018-09-21T10:41:10.558Z,997.17
2018-09-21T10:43:03.688Z,996.96
2018-09-21T10:44:03.659Z,996.92
2018-09-21T10:45:56.786Z,996.92
2018-09-21T10:46:56.760Z,996.83
2018-09-21T10:48:49.881Z,996.71
2018-09-21T10:49:49.862Z,996.69
2018-09-21T10:51:42.993Z,996.78
2018-09-21T10:52:43.025Z,996.78
2018-09-21T10:54:36.079Z,997.04
2018-09-21T10:55:36.067Z,997.11
2018-09-21T10:57:29.215Z,996.97
2018-09-21T10:58:29.249Z,996.93
2018-09-21T11:00:22.334Z,997.26
2018-09-21T11:01:22.300Z,997.03
2018-09-21T11:03:15.423Z,997.02
2018-09-21T11:04:15.401Z,997.16
2018-09-21T11:06:08.515Z,997.06
2018-09-21T11:07:08.566Z,997.28
2018-09-21T11:09:01.631Z,997.04
2018-09-21T11:10:01.612Z,997.19
2018-09-21T11:11:54.732Z,997.17
2018-09-21T11:12:54.727Z,997.17
2018-09-21T11:14:47.838Z,997.12
2018-09-21T11:15:47.834Z,996.87
2018-09-21T11:17:40.956Z,996.82
2018-09-21T11:18:40.947Z,996.83
2018-09-21T11:20:34.120Z,996.88
2018-09-21T11:21:34.105Z,996.96
2018-09-21T11:23:27.202Z,996.93
2018-09-21T11:24:27.199Z,997.05
2018-09-21T11:26:20.332Z,996.94
2018-09-21T11:27:20.303Z,996.85
2018-09-21T11:29:13.420Z,996.76
2018-09-21T11:30:13.409Z,996.82
2018-09-21T11:32:06.540Z,996.74
2018-09-21T11:33:06.577Z,996.82
2018-09-21T11:34:59.633Z,996.91
2018-09-21T11:35:59.623Z,996.88
2018-09-21T11:37:52.752Z,996.98
2018-09-21T11:38:52.726Z,996.95
2018-09-21T11:40:45.834Z,996.98
2018-09-21T11:41:45.825Z,996.98
2018-09-21T11:43:38.957Z,997.10
2018-09-21T11:44:38.928Z,997.11
2018-09-21T11:46:32.034Z,997.12
2018-09-21T11:47:32.056Z,997.02
2018-09-21T11:49:25.159Z,996.89
2018-09-21T11:50:25.139Z,996.93
2018-09-21T11:52:18.246Z,996.95
2018-09-21T11:53:18.237Z,996.97
2018-09-21T11:55:11.354Z,996.95
2018-09-21T11:56:11.348Z,996.98
2018-09-21T11:58:04.460Z,996.99
2018-09-21T11:59:04.450Z,996.95
2018-09-21T12:00:57.575Z,996.91
2018-09-21T12:01:57.591Z,996.88
2018-09-21T12:03:50.667Z,996.83
2018-09-21T12:04:50.666Z,996.83
2018-09-21T12:06:43.780Z,996.72
2018-09-21T12:07:43.765Z,996.68
2018-09-21T12:09:36.876Z,996.71
2018-09-21T12:10:36.900Z,996.61
2018-09-21T12:12:29.980Z,996.74
2018-09-21T12:13:29.960Z,996.81
2018-09-21T12:15:23.068Z,996.83
2018-09-21T12:16:23.073Z,996.84
2018-09-21T12:18:16.183Z,996.83
2018-09-21T12:19:16.161Z,996.90
2018-09-21T12:21:09.266Z,996.94
2018-09-21T12:22:09.272Z,996.94
2018-09-21T12:24:02.380Z,997.02
2018-09-21T12:25:02.423Z,997.02
2018-09-21T12:26:55.463Z,996.95
2018-09-21T12:27:55.449Z,996.80
2018-09-21T12:29:48.569Z,996.83
2018-09-21T12:30:48.559Z,996.85
2018-09-21T12:32:41.680Z,996.72
2018-09-21T12:33:41.648Z,996.73
2018-09-21T12:35:34.765Z,996.70
2018-09-21T12:36:34.743Z,996.75
2018-09-21T12:38:27.857Z,996.79
2018-09-21T12:39:27.835Z,996.69
2018-09-21T12:41:20.959Z,996.78
2018-09-21T12:42:20.982Z,996.77
2018-09-21T12:44:14.045Z,996.72
2018-09-21T12:45:14.028Z,996.78
2018-09-21T12:47:07.173Z,996.83
2018-09-21T12:48:07.162Z,996.76
2018-09-21T12:50:00.257Z,996.77
2018-09-21T12:51:00.265Z,996.75
2018-09-21T12:52:53.368Z,996.82
2018-09-21T12:53:53.345Z,996.81
2018-09-21T12:55:46.465Z,996.88
2018-09-21T12:56:46.445Z,996.81
2018-09-21T12:58:39.615Z,996.86
2018-09-21T12:59:39.542Z,996.87
2018-09-21T13:01:32.649Z,996.79
2018-09-21T13:02:32.652Z,996.73
2018-09-21T13:04:25.755Z,996.71
2018-09-21T13:05:25.741Z,996.65
2018-09-21T13:07:18.850Z,996.52
2018-09-21T13:08:18.843Z,996.45
2018-09-21T13:10:11.966Z,996.47
2018-09-21T13:11:11.943Z,996.48
2018-09-21T13:13:05.053Z,996.41
2018-09-21T13:14:05.041Z,996.50
2018-09-21T13:15:58.178Z,996.47
2018-09-21T13:16:58.145Z,996.36
2018-09-21T13:18:51.255Z,996.41
2018-09-21T13:19:51.243Z,996.43
2018-09-21T13:21:44.369Z,996.52
2018-09-21T13:22:44.341Z,996.61
2018-09-21T13:24:37.442Z,996.51
2018-09-21T13:25:37.471Z,996.52
2018-09-21T13:27:30.573Z,996.53
2018-09-21T13:28:30.527Z,996.49
2018-09-21T13:30:23.640Z,996.57
2018-09-21T13:31:23.628Z,996.55
2018-09-21T13:33:16.749Z,996.46
2018-09-21T13:34:16.721Z,996.46
2018-09-21T13:36:09.834Z,996.43
2018-09-21T13:37:09.823Z,996.44
2018-09-21T13:39:02.963Z,996.26
2018-09-21T13:40:02.922Z,996.32
2018-09-21T13:41:56.041Z,996.30
2018-09-21T13:42:56.024Z,996.32
2018-09-21T13:44:49.148Z,996.18
2018-09-21T13:45:49.121Z,996.23
2018-09-21T13:47:42.222Z,996.23
2018-09-21T13:48:42.215Z,996.32
2018-09-21T13:50:35.348Z,996.24
2018-09-21T13:51:35.329Z,996.32
2018-09-21T13:53:28.425Z,996.40
2018-09-21T13:54:28.413Z,996.43
2018-09-21T13:56:21.535Z,996.40
2018-09-21T13:57:21.513Z,996.41
2018-09-21T13:59:14.667Z,996.45
2018-09-21T14:00:14.612Z,996.48
2018-09-21T14:02:07.734Z,996.34
2018-09-21T14:03:07.709Z,996.36
2018-09-21T14:05:00.820Z,996.21
2018-09-21T14:06:00.809Z,996.22
2018-09-21T14:07:53.924Z,996.42
2018-09-21T14:08:53.934Z,996.38
2018-09-21T14:10:47.015Z,996.34
2018-09-21T14:11:46.997Z,996.46
2018-09-21T14:13:40.124Z,996.61
2018-09-21T14:14:40.104Z,996.69
2018-09-21T14:16:33.214Z,996.67
2018-09-21T14:17:33.196Z,996.77
2018-09-21T14:19:26.334Z,996.96
2018-09-21T14:20:26.302Z,996.97
2018-09-21T14:22:19.416Z,997.06
2018-09-21T14:23:19.407Z,997.16
2018-09-21T14:25:12.526Z,997.25
2018-09-21T14:26:12.507Z,997.27
2018-09-21T14:28:05.617Z,997.54
2018-09-21T14:29:05.649Z,997.58
2018-09-21T14:30:58.726Z,997.60
2018-09-21T14:31:58.692Z,997.42
2018-09-21T14:33:51.803Z,997.76
2018-09-21T14:34:51.780Z,997.81
2018-09-21T14:36:44.906Z,998.01
2018-09-21T14:37:44.881Z,997.96
2018-09-21T14:39:37.981Z,998.36
2018-09-21T14:40:37.967Z,998.51
2018-09-21T14:42:31.083Z,998.44
2018-09-21T14:43:31.057Z,998.67
2018-09-21T14:45:24.159Z,998.69
2018-09-21T14:46:24.146Z,998.91
2018-09-21T14:48:17.262Z,999.18
2018-09-21T14:49:17.234Z,999.17
2018-09-21T14:51:10.834Z,999.27
2018-09-21T14:52:10.809Z,999.20
2018-09-21T14:54:03.921Z,999.52
2018-09-21T14:55:03.890Z,999.49
2018-09-21T14:56:56.992Z,999.55
2018-09-21T14:57:56.973Z,999.51
2018-09-21T14:59:50.099Z,999.65
2018-09-21T15:00:50.053Z,999.51
2018-09-21T15:02:43.639Z,999.88
2018-09-21T15:03:43.625Z,999.80
2018-09-21T15:05:36.728Z,999.93
2018-09-21T15:06:36.714Z,999.95
2018-09-21T15:08:29.855Z,999.94
2018-09-21T15:09:29.778Z,1000.04
2018-09-21T15:11:22.889Z,1000.16
2018-09-21T15:12:22.861Z,1000.16
2018-09-21T15:14:15.960Z,1000.32
2018-09-21T15:15:15.948Z,1000.39
2018-09-21T15:17:09.059Z,1000.44
2018-09-21T15:18:09.029Z,1000.37
2018-09-21T15:20:02.140Z,1000.23
2018-09-21T15:21:02.130Z,1000.44
2018-09-21T15:22:55.230Z,1000.28
2018-09-21T15:23:55.204Z,1000.32
2018-09-21T15:25:48.312Z,1000.28
2018-09-21T15:26:48.289Z,1000.32
2018-09-21T15:28:41.401Z,1000.48
2018-09-21T15:29:41.365Z,1000.58
2018-09-21T15:31:34.461Z,1000.61
2018-09-21T15:32:34.446Z,1000.71
2018-09-21T15:34:27.565Z,1000.80
2018-09-21T15:35:27.542Z,1000.85
2018-09-21T15:37:20.634Z,1001.14
2018-09-21T15:38:20.615Z,1001.15
2018-09-21T15:40:13.721Z,1001.40
2018-09-21T15:41:13.700Z,1001.59
2018-09-21T15:43:06.853Z,1001.55
2018-09-21T15:44:06.762Z,1001.51
2018-09-21T15:45:59.867Z,1001.42
2018-09-21T15:46:59.846Z,1001.44
2018-09-21T15:48:52.930Z,1001.53
2018-09-21T15:49:52.910Z,1001.67
2018-09-21T15:51:46.023Z,1001.56
2018-09-21T15:52:46.027Z,1001.57
2018-09-21T15:54:39.078Z,1001.34
2018-09-21T15:55:39.060Z,1001.33
2018-09-21T15:57:32.160Z,1001.38
2018-09-21T15:58:33.008Z,1001.36
2018-09-21T16:00:26.553Z,1001.40
2018-09-21T16:01:26.516Z,1001.45
2018-09-21T16:03:19.720Z,1001.61
2018-09-21T16:04:19.628Z,1001.64
2018-09-21T16:06:13.878Z,1001.73
2018-09-21T16:07:13.901Z,1001.69
2018-09-21T16:09:08.653Z,1001.74
2018-09-21T16:10:07.015Z,1001.76
2018-09-21T16:12:03.309Z,1001.73
2018-09-21T16:13:02.435Z,1001.76
2018-09-21T16:14:57.453Z,1001.78
2018-09-21T16:15:56.494Z,1001.81
2018-09-21T16:17:50.890Z,1001.83
2018-09-21T16:18:50.393Z,1001.78
2018-09-21T16:20:45.166Z,1001.68
2018-09-21T16:21:45.217Z,1001.64
2018-09-21T16:23:41.978Z,1001.80
2018-09-21T16:24:40.970Z,1001.81
2018-09-21T16:26:35.336Z,1001.91
2018-09-21T16:27:34.810Z,1002.03
2018-09-21T16:29:29.116Z,1002.09
2018-09-21T16:30:28.611Z,1002.11
2018-09-21T16:32:23.255Z,1002.05
2018-09-21T16:33:21.830Z,1002.04
2018-09-21T16:35:18.599Z,1002.07
2018-09-21T16:36:17.104Z,1002.21
2018-09-21T16:38:10.879Z,1002.21
2018-09-21T16:39:10.891Z,1002.19
2018-09-21T16:41:04.616Z,1002.21
2018-09-21T16:42:04.007Z,1002.09
2018-09-21T16:43:58.836Z,1002.31
2018-09-21T16:44:58.326Z,1002.30
2018-09-21T16:46:51.517Z,1002.31
2018-09-21T16:47:52.095Z,1002.34
2018-09-21T16:49:46.767Z,1002.31
2018-09-21T16:50:45.840Z,1002.27
2018-09-21T16:52:41.039Z,1002.34
2018-09-21T16:53:39.536Z,1002.43
2018-09-21T16:55:33.265Z,1002.38
2018-09-21T16:56:33.260Z,1002.42
2018-09-21T16:58:26.954Z,1002.45
2018-09-21T16:59:26.442Z,1002.42
2018-09-21T17:01:21.217Z,1002.41
2018-09-21T17:02:20.719Z,1002.44
2018-09-21T17:04:14.523Z,1002.37
2018-09-21T17:05:14.503Z,1002.45
2018-09-21T17:07:08.174Z,1002.46
2018-09-21T17:08:08.174Z,1002.47
2018-09-21T17:10:01.523Z,1002.36
2018-09-21T17:11:02.415Z,1002.32
2018-09-21T17:12:56.728Z,1002.39
2018-09-21T17:13:55.725Z,1002.41
2018-09-21T17:15:49.927Z,1002.47
2018-09-21T17:16:49.420Z,1002.53
2018-09-21T17:18:43.689Z,1002.66
2018-09-21T17:19:44.219Z,1002.72
2018-09-21T17:21:38.931Z,1002.69
2018-09-21T17:22:37.931Z,1002.77
2018-09-21T17:24:32.119Z,1002.88
2018-09-21T17:25:31.668Z,1002.79
2018-09-21T17:27:26.411Z,1002.77
2018-09-21T17:28:26.411Z,1002.80
2018-09-21T17:30:22.147Z,1002.81
2018-09-21T17:31:20.745Z,1002.85
2018-09-21T17:33:15.487Z,1002.93
2018-09-21T17:34:14.989Z,1002.97
2018-09-21T17:36:10.337Z,1002.95
2018-09-21T17:37:08.899Z,1002.90
2018-09-21T17:39:03.286Z,1002.92
2018-09-21T17:40:02.178Z,1003.01
2018-09-21T17:41:56.252Z,1002.98
2018-09-21T17:42:56.528Z,1003.00
2018-09-21T17:44:51.744Z,1002.99
2018-09-21T17:47:45.022Z,1003.19
2018-09-21T17:48:44.415Z,1003.14
2018-09-21T17:50:39.721Z,1003.19
2018-09-21T17:52:53.099Z,1003.29
2018-09-21T17:53:52.597Z,1003.29
2018-09-21T17:55:46.107Z,1003.39
2018-09-21T17:56:46.531Z,1003.37